Time;durP1;ratioP1;P1;durP2;ratioP2;P2;SDS_P1;SDS_P2;PMS_P1;PMS_P2;Temp;Humidity;BMP_temperature;BMP_pressure;BME280_temperature;BME280_humidity;BME280_pressure;Samples;Min_cycle;Max_cycle;Signal;HPM_P1;HPM_P2
2023/10/18 00:03:45;;;;;;;73.40;39.90;;;;;;;2.38;84.03;100617.11;130280;1257;114733;-72
2023/10/18 00:06:48;;;;;;;76.70;40.90;;;;;;;2.34;83.94;100623.86;130390;1257;114735;-72
2023/10/18 00:09:50;;;;;;;71.00;39.10;;;;;;;2.28;83.81;100621.81;130542;1254;114744;-73
2023/10/18 00:12:53;;;;;;;69.60;38.00;;;;;;;2.23;83.94;100619.55;132808;1253;114727;-73
2023/10/18 00:16:03;;;;;;;65.40;37.20;;;;;;;2.20;84.02;100618.88;130594;1257;115418;-72
2023/10/18 00:19:05;;;;;;;67.00;38.20;;;;;;;2.16;83.92;100624.73;130488;1258;115294;-69
2023/10/18 00:22:09;;;;;;;86.10;44.10;;;;;;;2.11;83.92;100627.26;130288;1257;115179;-71
2023/10/18 00:25:12;;;;;;;81.40;41.90;;;;;;;2.08;84.00;100623.76;130665;1256;114821;-71
2023/10/18 00:28:14;;;;;;;101.90;51.20;;;;;;;2.05;84.09;100620.63;130574;1257;115319;-70
2023/10/18 00:31:17;;;;;;;104.90;49.00;;;;;;;2.01;84.06;100615.55;130461;1257;114808;-70
2023/10/18 00:34:19;;;;;;;99.20;49.10;;;;;;;1.97;84.12;100612.95;130532;1256;128885;-70
2023/10/18 00:37:21;;;;;;;82.80;43.20;;;;;;;1.93;84.16;100612.80;130461;1253;114793;-69
2023/10/18 00:40:33;;;;;;;90.00;43.10;;;;;;;1.90;84.29;100612.82;130307;1257;114747;-70
2023/10/18 00:43:36;;;;;;;76.70;41.40;;;;;;;1.86;84.33;100614.61;130274;1256;114730;-70
2023/10/18 00:46:39;;;;;;;78.20;40.60;;;;;;;1.84;84.53;100617.10;130357;1276;115287;-70
2023/10/18 00:49:41;;;;;;;67.60;38.60;;;;;;;1.83;84.46;100614.66;130177;1258;114868;-70
2023/10/18 00:52:44;;;;;;;68.10;37.90;;;;;;;1.81;84.94;100609.73;130332;1256;114831;-70
2023/10/18 00:55:48;;;;;;;69.10;37.00;;;;;;;1.81;84.79;100608.69;129907;1258;127628;-70
2023/10/18 00:58:52;;;;;;;64.70;36.90;;;;;;;1.80;85.08;100608.88;130294;1276;114751;-72
2023/10/18 01:02:03;;;;;;;45.40;25.10;;;;;;;1.79;85.10;100605.00;129939;1260;115175;-71
2023/10/18 01:05:09;;;;;;;67.30;38.00;;;;;;;1.79;85.16;100601.48;130200;1258;114724;-70
2023/10/18 01:08:11;;;;;;;75.50;40.50;;;;;;;1.80;85.14;100604.99;130161;1260;114794;-73
2023/10/18 01:11:18;;;;;;;83.60;43.70;;;;;;;1.80;85.41;100611.32;130255;1256;114709;-72
2023/10/18 01:14:24;;;;;;;93.30;45.40;;;;;;;1.82;85.79;100605.50;130308;1257;115161;-71
2023/10/18 01:17:26;;;;;;;83.00;44.60;;;;;;;1.81;85.49;100599.87;130248;1256;114738;-71
2023/10/18 01:23:33;;;;;;;79.80;42.20;;;;;;;1.80;85.62;100591.42;130214;1272;114738;-71
2023/10/18 01:26:38;;;;;;;87.20;44.30;;;;;;;1.78;85.76;100590.91;130287;1254;115215;-71
2023/10/18 01:29:40;;;;;;;82.60;43.90;;;;;;;1.76;85.72;100589.70;130322;1256;114792;-72
2023/10/18 01:32:44;;;;;;;84.40;42.90;;;;;;;1.73;85.77;100580.21;130374;1258;114766;-72
2023/10/18 01:35:50;;;;;;;77.70;40.10;;;;;;;1.70;85.64;100583.23;130345;1257;115089;-72
2023/10/18 01:38:56;;;;;;;76.00;41.20;;;;;;;1.67;85.53;100583.45;130265;1258;114782;-72
2023/10/18 01:42:06;;;;;;;77.40;40.90;;;;;;;1.63;85.40;100574.50;130095;1257;127699;-71
2023/10/18 01:45:09;;;;;;;74.50;39.70;;;;;;;1.59;85.62;100573.64;130277;1254;115259;-70
2023/10/18 01:48:17;;;;;;;75.60;41.00;;;;;;;1.56;85.48;100577.73;130422;1254;114722;-73
2023/10/18 01:51:19;;;;;;;77.80;39.60;;;;;;;1.51;85.42;100578.63;130400;1256;114772;-71
2023/10/18 01:54:25;;;;;;;73.00;40.00;;;;;;;1.47;85.49;100575.86;130196;1257;114728;-70
2023/10/18 01:57:27;;;;;;;73.30;39.00;;;;;;;1.42;85.38;100578.52;130272;1256;129103;-71
2023/10/18 02:00:37;;;;;;;79.20;41.50;;;;;;;1.38;85.14;100573.10;130270;1258;114706;-70
2023/10/18 02:03:39;;;;;;;80.30;40.60;;;;;;;1.35;85.44;100573.12;130415;1254;115307;-72
2023/10/18 02:06:42;;;;;;;78.10;40.70;;;;;;;1.31;85.41;100566.46;130499;1256;115244;-70
2023/10/18 02:09:48;;;;;;;76.40;41.90;;;;;;;1.28;85.38;100564.03;130291;1254;114750;-71
2023/10/18 02:12:50;;;;;;;81.50;44.50;;;;;;;1.24;85.55;100560.52;130029;1276;128745;-69
2023/10/18 02:15:52;;;;;;;103.20;52.20;;;;;;;1.21;85.53;100555.28;130210;1258;115032;-70
2023/10/18 02:18:55;;;;;;;95.80;50.10;;;;;;;1.18;85.59;100553.00;130407;1257;114735;-70
2023/10/18 02:21:57;;;;;;;88.90;47.90;;;;;;;1.15;85.44;100553.03;130265;1254;115451;-71
2023/10/18 02:24:59;;;;;;;99.00;52.50;;;;;;;1.11;85.50;100552.01;130369;1254;114825;-70
2023/10/18 02:28:07;;;;;;;95.70;49.80;;;;;;;1.09;85.64;100546.91;130372;1257;114699;-72
2023/10/18 02:31:21;;;;;;;96.60;49.10;;;;;;;1.05;85.55;100546.77;130416;1254;114715;-70
2023/10/18 02:34:25;;;;;;;94.60;48.30;;;;;;;1.01;85.76;100544.15;130397;1257;128243;-75
2023/10/18 02:37:27;;;;;;;93.60;48.20;;;;;;;0.97;85.38;100544.35;130362;1254;115243;-70
2023/10/18 02:40:29;;;;;;;84.40;45.60;;;;;;;0.94;85.85;100545.25;130223;1254;114770;-72
2023/10/18 02:43:31;;;;;;;82.50;46.30;;;;;;;0.91;85.71;100548.25;130351;1272;114823;-73
2023/10/18 02:46:33;;;;;;;87.00;44.10;;;;;;;0.88;85.83;100556.36;130405;1255;114782;-74
2023/10/18 02:49:36;;;;;;;76.50;43.90;;;;;;;0.86;85.90;100554.79;130285;1260;114766;-72
2023/10/18 02:52:37;;;;;;;87.20;45.90;;;;;;;0.84;85.86;100563.94;130478;1254;114817;-71
2023/10/18 02:55:41;;;;;;;71.90;42.30;;;;;;;0.80;86.03;100571.88;130355;1257;128752;-73
2023/10/18 02:58:44;;;;;;;72.80;42.40;;;;;;;0.78;85.95;100576.46;129966;1258;115268;-74
2023/10/18 03:01:48;;;;;;;74.20;41.00;;;;;;;0.76;86.08;100577.87;130438;1256;114708;-71
2023/10/18 03:04:52;;;;;;;75.70;42.70;;;;;;;0.77;86.07;100583.14;130076;1256;114845;-75
2023/10/18 03:07:54;;;;;;;77.70;43.80;;;;;;;0.75;86.28;100578.40;130424;1276;114663;-72
2023/10/18 03:10:56;;;;;;;79.70;45.30;;;;;;;0.77;86.31;100583.84;130362;1254;114772;-73
2023/10/18 03:14:01;;;;;;;75.30;44.00;;;;;;;0.78;86.49;100581.20;130485;1254;114841;-74
2023/10/18 03:17:14;;;;;;;;;;;;;;;0.81;86.62;100580.14;130577;1256;114747;-71
2023/10/18 03:20:23;;;;;;;76.00;43.30;;;;;;;0.83;86.69;100580.48;130302;1252;114767;-72
2023/10/18 03:23:26;;;;;;;71.20;41.70;;;;;;;0.87;86.89;100574.65;130460;1256;114731;-71
2023/10/18 03:26:43;;;;;;;74.50;44.50;;;;;;;0.92;87.21;100572.69;127915;1254;3217344;-71
2023/10/18 03:29:45;;;;;;;77.30;44.70;;;;;;;0.97;87.13;100573.90;130505;1253;128964;-70
2023/10/18 03:32:49;;;;;;;71.80;42.20;;;;;;;1.03;87.40;100568.77;130160;1254;114702;-71
2023/10/18 03:36:09;;;;;;;87.30;45.40;;;;;;;1.10;87.55;100566.60;130603;1259;114802;-72
2023/10/18 03:39:13;;;;;;;80.50;44.00;;;;;;;1.17;87.79;100563.74;130347;1276;114770;-71
2023/10/18 03:42:37;;;;;;;65.40;33.30;;;;;;;1.25;87.81;100559.98;130523;1254;115059;-73
2023/10/18 03:49:01;;;;;;;101.90;43.30;;;;;;;1.40;88.20;100545.27;130168;1257;115235;-74
2023/10/18 03:55:18;;;;;;;128.80;36.90;;;;;;;1.53;88.60;100540.60;130257;1260;114831;-71
2023/10/18 03:58:29;;;;;;;112.50;38.00;;;;;;;1.58;88.85;100539.49;130267;1257;114748;-71
2023/10/18 04:01:39;;;;;;;99.20;31.20;;;;;;;1.63;89.08;100533.30;130376;1276;128869;-70
2023/10/18 04:04:47;;;;;;;87.30;30.70;;;;;;;1.66;89.17;100531.16;130363;1276;115167;-71
2023/10/18 04:07:50;;;;;;;81.80;30.40;;;;;;;1.70;89.22;100527.42;130223;1259;114707;-72
2023/10/18 04:11:00;;;;;;;119.90;33.10;;;;;;;1.74;89.04;100527.92;130304;1256;115405;-71
2023/10/18 04:14:02;;;;;;;110.40;36.40;;;;;;;1.76;89.11;100524.90;130256;1257;114770;-70
2023/10/18 04:17:09;;;;;;;103.80;36.60;;;;;;;1.78;88.85;100516.43;130368;1254;114744;-71
2023/10/18 04:23:20;;;;;;;118.60;37.20;;;;;;;1.78;88.93;100514.67;130663;1256;114767;-72
2023/10/18 04:26:25;;;;;;;83.20;35.40;;;;;;;1.77;88.94;100509.04;130379;1257;114796;-74
2023/10/18 04:29:33;;;;;;;89.00;34.90;;;;;;;1.79;89.20;100502.52;130144;1258;114910;-74
2023/10/18 04:32:36;;;;;;;86.40;32.70;;;;;;;1.78;88.81;100503.39;130526;1253;128754;-71
2023/10/18 04:35:51;;;;;;;120.10;34.10;;;;;;;1.80;89.18;100498.45;130272;1257;114696;-72
2023/10/18 04:38:56;;;;;;;108.00;30.80;;;;;;;1.79;88.77;100499.16;130347;1255;114731;-71
2023/10/18 04:41:58;;;;;;;111.20;33.20;;;;;;;1.75;88.74;100504.14;130267;1259;114817;-71
2023/10/18 04:45:16;;;;;;;74.10;30.40;;;;;;;1.69;88.72;100502.79;130321;1256;114987;-71
2023/10/18 04:48:43;;;;;;;75.90;30.40;;;;;;;1.67;88.73;100499.10;130345;1257;128863;-69
2023/10/18 04:51:44;;;;;;;82.70;29.10;;;;;;;1.65;89.01;100500.36;130398;1256;114773;-72
2023/10/18 04:54:59;;;;;;;114.90;30.10;;;;;;;1.65;89.21;100504.23;130304;1254;114728;-70
2023/10/18 04:58:01;;;;;;;;;;;;;;;1.68;89.03;100504.19;130312;1256;114872;-76
2023/10/18 05:01:07;;;;;;;93.30;29.50;;;;;;;1.68;88.96;100504.71;130574;1256;114693;-75
2023/10/18 05:04:24;;;;;;;101.00;31.60;;;;;;;1.66;89.07;100508.79;130312;1270;128889;-72
2023/10/18 05:07:41;;;;;;;76.30;31.40;;;;;;;1.65;89.34;100506.88;130254;1254;115248;-72
2023/10/18 05:10:46;;;;;;;73.00;31.20;;;;;;;1.65;89.24;100499.30;130310;1254;114802;-75
2023/10/18 05:13:49;;;;;;;84.60;28.80;;;;;;;1.65;89.23;100499.84;130220;1254;114708;-72
2023/10/18 05:16:53;;;;;;;76.20;28.00;;;;;;;1.67;89.57;100502.46;130352;1256;115153;-72
2023/10/18 05:19:58;;;;;;;81.90;29.40;;;;;;;1.70;89.60;100507.88;130431;1254;115467;-72
2023/10/18 05:23:00;;;;;;;75.10;27.00;;;;;;;1.75;89.81;100506.25;130271;1256;115350;-72
2023/10/18 05:29:17;;;;;;;88.30;23.50;;;;;;;1.82;89.77;100500.54;130072;1254;114849;-71
2023/10/18 05:32:37;;;;;;;94.80;23.70;;;;;;;1.84;89.64;100501.92;130304;1256;114748;-71
2023/10/18 05:35:43;;;;;;;52.70;23.10;;;;;;;1.84;89.54;100508.09;130252;1254;131460;-72
2023/10/18 05:41:51;;;;;;;65.90;23.00;;;;;;;1.86;89.64;100511.77;130335;1257;114769;-73
2023/10/18 05:44:53;;;;;;;81.70;26.10;;;;;;;1.91;89.89;100508.02;130317;1272;114723;-70
2023/10/18 05:47:55;;;;;;;108.30;27.00;;;;;;;1.96;89.88;100510.08;130315;1257;115253;-71
2023/10/18 05:51:03;;;;;;;75.10;23.80;;;;;;;1.96;89.27;100508.66;130339;1257;114719;-70
2023/10/18 05:54:06;;;;;;;79.40;26.00;;;;;;;1.97;89.28;100511.84;130229;1260;129152;-72
2023/10/18 05:57:08;;;;;;;98.20;26.40;;;;;;;1.99;89.15;100510.42;130199;1276;114729;-73
2023/10/18 06:00:20;;;;;;;75.50;27.60;;;;;;;2.00;89.49;100508.80;130645;1256;115228;-73
2023/10/18 06:03:47;;;;;;;64.30;24.80;;;;;;;2.04;89.40;100506.30;130014;1257;114972;-72
2023/10/18 06:06:47;;;;;;;80.30;25.00;;;;;;;2.08;89.74;100501.49;130356;1257;114869;-72
2023/10/18 06:13:09;;;;;;;67.10;25.60;;;;;;;2.17;89.29;100501.39;130266;1257;128480;-74
2023/10/18 06:16:20;;;;;;;55.90;28.70;;;;;;;2.21;89.68;100500.30;130350;1256;114661;-74
2023/10/18 06:19:27;;;;;;;89.70;26.50;;;;;;;2.30;90.13;100496.64;130453;1256;114737;-72
2023/10/18 06:22:29;;;;;;;64.60;27.70;;;;;;;2.35;89.41;100496.41;130280;1257;114772;-72
2023/10/18 06:25:34;;;;;;;52.10;26.50;;;;;;;2.36;89.24;100497.27;130263;1259;115152;-72
2023/10/18 06:28:37;;;;;;;82.70;24.80;;;;;;;2.38;89.21;100497.27;130337;1257;129106;-71
2023/10/18 06:31:49;;;;;;;67.30;27.30;;;;;;;2.39;88.97;100499.00;130227;1276;114737;-70
2023/10/18 06:34:57;;;;;;;56.40;26.30;;;;;;;2.44;89.15;100508.64;129946;1262;114832;-72
2023/10/18 06:38:06;;;;;;;56.70;26.30;;;;;;;2.52;89.45;100508.19;130301;1257;114737;-71
2023/10/18 06:41:18;;;;;;;54.70;27.10;;;;;;;2.60;89.26;100514.08;130137;1262;114852;-72
2023/10/18 06:44:20;;;;;;;60.00;26.50;;;;;;;2.71;89.39;100515.70;130317;1254;128325;-73
2023/10/18 06:47:38;;;;;;;48.00;25.00;;;;;;;2.80;89.34;100516.28;130607;1272;114720;-73
2023/10/18 06:50:46;;;;;;;61.10;26.50;;;;;;;2.89;89.51;100516.52;130292;1262;114706;-71
2023/10/18 06:53:48;;;;;;;75.50;27.70;;;;;;;2.99;89.40;100519.36;130370;1269;114794;-73
2023/10/18 06:56:53;;;;;;;54.60;26.30;;;;;;;3.07;89.27;100524.70;130260;1254;114721;-71
2023/10/18 06:59:55;;;;;;;63.60;27.40;;;;;;;3.17;89.28;100524.73;130256;1257;115338;-70
2023/10/18 07:02:59;;;;;;;53.40;28.90;;;;;;;3.27;89.37;100519.99;130709;1254;114793;-73
2023/10/18 07:06:10;;;;;;;67.40;28.20;;;;;;;3.38;89.20;100518.76;130280;1257;115501;-72
2023/10/18 07:09:24;;;;;;;60.70;28.20;;;;;;;3.47;89.15;100514.89;130593;1256;115103;-71
2023/10/18 07:12:26;;;;;;;51.20;29.40;;;;;;;3.61;89.39;100500.52;130592;1256;115386;-75
2023/10/18 07:15:34;;;;;;;58.50;27.50;;;;;;;3.76;89.60;100495.67;130639;1256;114728;-71
2023/10/18 07:18:38;;;;;;;43.60;24.40;;;;;;;3.96;89.38;100499.38;130283;1263;128166;-71
2023/10/18 07:21:42;;;;;;;50.50;26.50;;;;;;;4.16;89.27;100498.45;130279;1254;114738;-72
2023/10/18 07:24:47;;;;;;;56.70;26.70;;;;;;;4.31;88.97;100499.73;130745;1253;114785;-71
2023/10/18 07:27:49;;;;;;;51.60;24.10;;;;;;;4.40;88.53;100502.56;130364;1256;115609;-71
2023/10/18 07:30:55;;;;;;;53.90;29.10;;;;;;;4.49;88.31;100504.68;130451;1256;114713;-75
2023/10/18 07:34:02;;;;;;;46.30;28.80;;;;;;;4.59;88.25;100496.33;130668;1276;127781;-75
2023/10/18 07:37:17;;;;;;;52.30;27.20;;;;;;;4.78;88.52;100488.65;130744;1276;115213;-72
2023/10/18 07:40:23;;;;;;;52.10;25.30;;;;;;;4.95;88.64;100486.14;130578;1254;114844;-71
2023/10/18 07:43:26;;;;;;;48.70;27.30;;;;;;;5.29;88.75;100486.73;130735;1256;114732;-71
2023/10/18 07:46:29;;;;;;;54.30;28.90;;;;;;;5.65;88.03;100482.66;130448;1256;114745;-71
2023/10/18 07:49:31;;;;;;;33.30;21.10;;;;;;;5.89;87.37;100482.36;130299;1257;114810;-72
2023/10/18 07:52:33;;;;;;;36.50;21.70;;;;;;;6.01;87.04;100483.66;130407;1254;114713;-74
2023/10/18 07:55:41;;;;;;;37.20;22.40;;;;;;;6.02;86.69;100482.23;130423;1259;115227;-74
2023/10/18 07:58:53;;;;;;;34.10;22.30;;;;;;;6.14;87.00;100483.67;130380;1260;114752;-73
2023/10/18 08:05:30;;;;;;;37.00;23.40;;;;;;;6.20;86.30;100484.02;130442;1276;114807;-70
2023/10/18 08:08:35;;;;;;;38.80;22.80;;;;;;;6.25;86.01;100480.52;130440;1259;128890;-70
2023/10/18 08:11:37;;;;;;;;;;;;;;;6.30;86.11;100483.02;130298;1259;114780;-70
2023/10/18 08:14:40;;;;;;;35.40;23.60;;;;;;;6.31;85.75;100482.48;130451;1259;115144;-70
2023/10/18 08:23:55;;;;;;;36.10;23.70;;;;;;;6.36;85.55;100475.93;130366;1261;115586;-70
2023/10/18 08:27:00;;;;;;;;;;;;;;;6.41;85.77;100467.29;130206;1255;129436;-70
2023/10/18 08:30:20;;;;;;;26.80;20.50;;;;;;;6.47;85.76;100466.02;130360;1276;114834;-71
2023/10/18 08:33:23;;;;;;;35.80;23.60;;;;;;;6.54;85.92;100461.93;129971;1261;114819;-70
2023/10/18 08:36:31;;;;;;;37.00;24.90;;;;;;;6.61;85.77;100466.52;130307;1256;114850;-71
2023/10/18 08:39:32;;;;;;;40.10;25.30;;;;;;;6.64;85.55;100464.45;130321;1256;115289;-70
2023/10/18 08:42:40;;;;;;;39.10;25.40;;;;;;;6.70;85.55;100462.14;130334;1254;114652;-70
2023/10/18 08:45:48;;;;;;;37.40;24.80;;;;;;;6.68;85.07;100462.73;130276;1256;114709;-71
2023/10/18 08:48:52;;;;;;;45.50;26.30;;;;;;;6.78;85.61;100461.03;130173;1262;114761;-70
2023/10/18 08:52:10;;;;;;;42.10;26.20;;;;;;;6.89;85.75;100457.67;130166;1262;114880;-69
2023/10/18 08:58:35;;;;;;;40.90;25.90;;;;;;;7.11;85.30;100447.89;129966;1276;127558;-69
2023/10/18 09:01:37;;;;;;;45.20;27.80;;;;;;;7.23;85.48;100444.12;130607;1276;115177;-71
2023/10/18 09:04:44;;;;;;;43.80;26.90;;;;;;;7.38;85.51;100440.08;130296;1256;114828;-70
2023/10/18 09:07:46;;;;;;;40.80;25.80;;;;;;;7.52;85.86;100434.97;130491;1256;114767;-73
2023/10/18 09:10:54;;;;;;;45.40;27.40;;;;;;;7.65;85.34;100432.39;130397;1254;114935;-69
2023/10/18 09:17:28;;;;;;;40.80;25.00;;;;;;;7.97;85.29;100426.45;130036;1259;115350;-70
2023/10/18 09:20:31;;;;;;;37.70;24.70;;;;;;;8.12;85.31;100429.80;130305;1254;114722;-71
2023/10/18 09:23:34;;;;;;;34.20;22.30;;;;;;;8.28;85.52;100429.58;130270;1256;114827;-71
2023/10/18 09:26:40;;;;;;;38.80;23.20;;;;;;;8.42;84.52;100430.48;130333;1256;115233;-70
2023/10/18 09:29:46;;;;;;;33.70;23.10;;;;;;;8.49;84.00;100427.89;130231;1256;114709;-69
2023/10/18 09:32:49;;;;;;;38.70;22.60;;;;;;;8.58;83.91;100431.64;130255;1256;128185;-71
2023/10/18 09:35:53;;;;;;;29.00;19.00;;;;;;;8.69;83.92;100429.29;129997;1270;116603;-70
2023/10/18 09:38:56;;;;;;;30.00;19.20;;;;;;;8.80;83.67;100423.12;130564;1268;114718;-69
2023/10/18 09:41:59;;;;;;;30.60;20.30;;;;;;;8.91;83.36;100420.20;130409;1257;114750;-71
2023/10/18 09:45:02;;;;;;;28.30;19.90;;;;;;;9.03;82.95;100413.67;130433;1252;114692;-69
2023/10/18 09:48:08;;;;;;;24.10;16.80;;;;;;;9.12;82.43;100409.73;130419;1256;114714;-70
2023/10/18 09:51:15;;;;;;;32.70;17.00;;;;;;;9.22;82.23;100405.58;130570;1256;115255;-70
2023/10/18 09:54:21;;;;;;;26.90;19.10;;;;;;;9.31;81.91;100400.00;130384;1276;115163;-71
2023/10/18 09:57:24;;;;;;;30.10;19.90;;;;;;;9.43;81.97;100395.77;130182;1256;115404;-71
2023/10/18 10:00:29;;;;;;;25.30;17.20;;;;;;;9.51;81.97;100398.25;130121;1260;114771;-71
2023/10/18 10:03:32;;;;;;;25.30;16.60;;;;;;;9.59;81.14;100386.70;130430;1254;128558;-73
2023/10/18 10:06:34;;;;;;;25.60;16.90;;;;;;;9.63;80.70;100381.50;130456;1257;114737;-72
2023/10/18 10:09:38;;;;;;;21.70;15.20;;;;;;;9.71;80.47;100377.59;130559;1272;114687;-72
2023/10/18 10:12:42;;;;;;;22.10;14.80;;;;;;;9.77;80.33;100371.09;130502;1256;114721;-75
2023/10/18 10:15:57;;;;;;;27.40;17.90;;;;;;;9.85;79.82;100364.48;130595;1256;114701;-75
2023/10/18 10:19:04;;;;;;;25.20;16.30;;;;;;;9.89;79.65;100356.27;130092;1253;114704;-74
2023/10/18 10:22:07;;;;;;;21.90;14.90;;;;;;;9.95;79.06;100350.10;130660;1260;128834;-71
2023/10/18 10:25:15;;;;;;;22.60;14.90;;;;;;;9.99;78.92;100342.45;130270;1260;115539;-68
2023/10/18 10:32:09;;;;;;;19.60;13.40;;;;;;;10.10;78.39;100325.52;129843;1262;114911;-69
2023/10/18 10:35:17;;;;;;;19.10;10.20;;;;;;;10.15;78.22;100324.58;129962;1262;114845;-71
2023/10/18 10:38:26;;;;;;;20.20;12.90;;;;;;;10.18;77.32;100321.36;130234;1254;128555;-74
2023/10/18 10:41:31;;;;;;;19.20;13.20;;;;;;;10.23;77.02;100317.02;130406;1259;115508;-68
2023/10/18 10:44:38;;;;;;;22.40;13.00;;;;;;;10.29;76.72;100316.03;130514;1253;114804;-69
2023/10/18 10:47:43;;;;;;;14.70;10.70;;;;;;;10.36;76.45;100314.45;130303;1259;115244;-70
2023/10/18 10:50:53;;;;;;;13.00;9.60;;;;;;;10.42;76.19;100310.80;130193;1264;115105;-70
2023/10/18 10:53:58;;;;;;;17.10;10.10;;;;;;;10.49;75.97;100303.36;130329;1254;128732;-71
2023/10/18 10:57:00;;;;;;;;;;;;;;;10.55;74.74;100303.39;130223;1254;114731;-69
2023/10/18 11:03:30;;;;;;;14.40;7.90;;;;;;;10.66;74.11;100290.53;129566;1254;114893;-64
2023/10/18 11:06:32;;;;;;;19.70;9.30;;;;;;;10.71;73.67;100288.86;130428;1263;114674;-63
2023/10/18 11:09:38;;;;;;;14.40;8.80;;;;;;;10.74;73.65;100282.83;130380;1263;114846;-62
2023/10/18 11:12:41;;;;;;;16.20;10.40;;;;;;;10.77;72.64;100281.22;130362;1254;115285;-62
2023/10/18 11:15:43;;;;;;;13.70;9.30;;;;;;;10.80;72.91;100275.17;130273;1260;114713;-62
2023/10/18 11:18:48;;;;;;;18.00;9.70;;;;;;;10.84;72.08;100268.91;130280;1254;114866;-64
2023/10/18 11:21:51;;;;;;;;;;;;;;;10.89;72.56;100264.57;130316;1254;114844;-63
2023/10/18 11:24:55;;;;;;;13.90;8.40;;;;;;;10.93;71.97;100261.66;130261;1254;115303;-62
2023/10/18 11:28:10;;;;;;;12.10;8.20;;;;;;;10.95;71.76;100258.16;130256;1257;115323;-59
2023/10/18 11:31:14;;;;;;;16.40;9.00;;;;;;;10.97;70.83;100261.29;129560;1260;114825;-60
2023/10/18 11:34:21;;;;;;;13.70;8.40;;;;;;;11.01;71.23;100250.36;129676;1262;116059;-68
2023/10/18 11:37:58;;;;;;;14.50;8.40;;;;;;;11.05;70.55;100253.70;130350;1260;114762;-62
2023/10/18 11:40:52;;;;;;;13.50;8.30;;;;;;;11.07;70.22;100254.48;129818;1274;127731;-69
2023/10/18 11:43:55;;;;;;;13.80;8.00;;;;;;;11.11;70.77;100252.70;129968;1263;114741;-69
2023/10/18 11:47:27;;;;;;;11.90;7.20;;;;;;;11.14;70.06;100252.35;130178;1254;114799;-69
2023/10/18 11:50:47;;;;;;;12.60;7.90;;;;;;;11.18;70.15;100243.02;130172;1264;114773;-69
2023/10/18 11:53:52;;;;;;;11.90;7.90;;;;;;;11.22;69.90;100234.77;130220;1270;115395;-68
2023/10/18 11:56:56;;;;;;;12.10;7.70;;;;;;;11.26;69.84;100232.05;129988;1259;128216;-68
2023/10/18 12:03:21;;;;;;;11.00;7.00;;;;;;;11.32;69.59;100224.98;130247;1268;114786;-68
2023/10/18 12:06:23;;;;;;;12.50;7.20;;;;;;;11.32;68.64;100220.27;130201;1254;114727;-66
2023/10/18 12:09:25;;;;;;;9.70;6.40;;;;;;;11.33;68.42;100212.70;130211;1274;115171;-68
2023/10/18 12:12:27;;;;;;;13.50;7.00;;;;;;;11.34;68.42;100212.67;130211;1259;114732;-68
2023/10/18 12:15:30;;;;;;;11.50;6.80;;;;;;;11.36;68.05;100208.27;130032;1264;128349;-68
2023/10/18 12:18:32;;;;;;;15.00;7.70;;;;;;;11.38;68.29;100209.06;130446;1254;115090;-67
2023/10/18 12:21:34;;;;;;;13.10;6.70;;;;;;;11.39;67.22;100205.80;130373;1256;114788;-67
2023/10/18 12:24:37;;;;;;;10.40;6.90;;;;;;;11.42;67.53;100204.55;130483;1256;114743;-67
2023/10/18 12:27:49;;;;;;;12.60;6.40;;;;;;;11.45;67.84;100200.81;130485;1254;114789;-67
2023/10/18 12:30:55;;;;;;;10.80;7.20;;;;;;;11.48;67.17;100195.50;130081;1257;114853;-68
2023/10/18 12:34:00;;;;;;;11.50;6.80;;;;;;;11.49;66.53;100185.73;130391;1257;128859;-68
2023/10/18 12:37:02;;;;;;;13.80;6.40;;;;;;;11.53;66.76;100187.31;130151;1275;115131;-68
2023/10/18 12:40:14;;;;;;;8.60;6.00;;;;;;;11.57;66.43;100180.11;130428;1256;114713;-67
2023/10/18 12:43:19;;;;;;;10.50;5.90;;;;;;;11.63;65.83;100180.16;130336;1257;114731;-68
2023/10/18 12:46:22;;;;;;;12.20;6.10;;;;;;;11.70;65.53;100179.58;130256;1257;115470;-68
2023/10/18 12:49:24;;;;;;;10.70;5.90;;;;;;;11.76;65.90;100170.48;130278;1269;114807;-68
2023/10/18 12:55:43;;;;;;;10.70;6.00;;;;;;;11.85;65.69;100155.64;130368;1257;114727;-68
2023/10/18 12:58:54;;;;;;;10.80;6.10;;;;;;;11.86;65.59;100152.01;130102;1260;114863;-68
2023/10/18 13:02:00;;;;;;;12.80;5.80;;;;;;;11.88;65.68;100149.59;130107;1275;114824;-67
2023/10/18 13:05:02;;;;;;;8.70;5.80;;;;;;;11.86;64.78;100141.64;130442;1257;129001;-67
2023/10/18 13:08:15;;;;;;;11.70;5.90;;;;;;;11.85;64.85;100139.35;130390;1256;114717;-67
2023/10/18 13:14:29;;;;;;;8.20;5.30;;;;;;;11.84;63.77;100131.17;130312;1256;114734;-68
2023/10/18 13:17:32;;;;;;;17.00;5.50;;;;;;;11.84;63.79;100123.28;130214;1264;114944;-68
2023/10/18 13:20:36;;;;;;;8.60;5.60;;;;;;;11.85;64.34;100117.89;130253;1257;114772;-67
2023/10/18 13:23:44;;;;;;;9.90;5.50;;;;;;;11.84;63.99;100111.49;129948;1260;114852;-67
2023/10/18 13:26:48;;;;;;;12.50;5.40;;;;;;;11.81;63.01;100108.84;129986;1262;114899;-67
2023/10/18 13:30:00;;;;;;;10.80;5.40;;;;;;;11.77;63.51;100105.48;130252;1257;114910;-67
2023/10/18 13:33:11;;;;;;;10.20;5.10;;;;;;;11.74;63.41;100104.04;130246;1254;114760;-68
2023/10/18 13:36:13;;;;;;;9.60;4.90;;;;;;;11.70;63.33;100098.19;130054;1270;126993;-68
2023/10/18 13:39:16;;;;;;;7.30;4.90;;;;;;;11.67;63.53;100099.78;130307;1253;114707;-68
2023/10/18 13:42:19;;;;;;;6.90;4.70;;;;;;;11.64;63.21;100096.39;130331;1260;114744;-68
2023/10/18 13:45:27;;;;;;;7.30;4.60;;;;;;;11.61;62.87;100092.77;130400;1254;114717;-68
2023/10/18 13:48:30;;;;;;;9.30;5.70;;;;;;;11.59;63.29;100091.31;130047;1276;114838;-69
2023/10/18 13:51:34;;;;;;;8.70;4.40;;;;;;;11.57;63.08;100093.20;130237;1258;114699;-68
2023/10/18 13:54:36;;;;;;;8.60;4.60;;;;;;;11.56;62.61;100090.23;130399;1262;114840;-67
2023/10/18 13:57:38;;;;;;;10.90;5.10;;;;;;;11.52;61.77;100084.69;130396;1276;114664;-67
2023/10/18 14:00:40;;;;;;;8.70;4.70;;;;;;;11.51;61.62;100081.38;130510;1257;114913;-70
2023/10/18 14:03:48;;;;;;;9.20;4.70;;;;;;;11.51;61.90;100070.61;130312;1263;114747;-68
2023/10/18 14:06:49;;;;;;;7.30;4.10;;;;;;;11.52;61.67;100069.14;130439;1257;114764;-67
2023/10/18 14:09:55;;;;;;;7.50;4.20;;;;;;;11.51;61.81;100066.90;130435;1254;114742;-68
2023/10/18 14:12:57;;;;;;;9.20;5.10;;;;;;;11.47;62.13;100065.84;130400;1256;115240;-68
2023/10/18 14:15:59;;;;;;;7.40;4.30;;;;;;;11.44;62.39;100060.33;130366;1263;114729;-67
2023/10/18 14:19:01;;;;;;;7.70;3.90;;;;;;;11.39;61.99;100061.29;130406;1255;114754;-69
2023/10/18 14:22:06;;;;;;;4.70;3.90;;;;;;;11.34;61.40;100056.73;130303;1260;114779;-68
2023/10/18 14:25:09;;;;;;;8.50;4.00;;;;;;;11.30;61.46;100055.58;130089;1260;115182;-68
2023/10/18 14:28:14;;;;;;;5.60;3.70;;;;;;;11.25;61.28;100062.44;130296;1259;115057;-71
2023/10/18 14:31:16;;;;;;;7.90;3.40;;;;;;;11.21;61.19;100058.20;129971;1261;114876;-69
2023/10/18 14:34:21;;;;;;;7.70;4.00;;;;;;;11.16;61.29;100054.34;130379;1266;115085;-68
2023/10/18 14:37:23;;;;;;;5.60;4.00;;;;;;;11.11;61.46;100052.50;130423;1257;114802;-66
2023/10/18 14:40:27;;;;;;;10.50;5.70;;;;;;;11.08;61.34;100050.73;130360;1266;115260;-67
2023/10/18 14:43:31;;;;;;;15.60;6.70;;;;;;;11.05;61.48;100046.58;130166;1277;115192;-68
2023/10/18 14:46:33;;;;;;;9.00;4.40;;;;;;;11.03;61.28;100041.85;130248;1267;115207;-67
2023/10/18 14:49:34;;;;;;;9.60;4.80;;;;;;;11.02;61.15;100042.29;130139;1260;115494;-68
2023/10/18 14:52:42;;;;;;;4.90;3.70;;;;;;;11.02;60.95;100036.58;130263;1259;114805;-68
2023/10/18 14:55:44;;;;;;;5.80;3.60;;;;;;;10.99;61.34;100036.52;130254;1276;114735;-70